createdAt,value
2019-05-07T00:01:55.273Z,3.20
2019-05-07T00:04:23.660Z,3.30
2019-05-07T00:06:52.895Z,3.20
2019-05-07T00:09:23.301Z,3.20
2019-05-07T00:11:53.345Z,3.10
2019-05-07T00:14:23.260Z,3.10
2019-05-07T00:16:53.509Z,3.00
2019-05-07T00:19:23.083Z,3.00
2019-05-07T00:21:52.778Z,3.00
2019-05-07T00:24:22.306Z,3.00
2019-05-07T00:26:53.211Z,3.00
2019-05-07T00:29:22.382Z,2.90
2019-05-07T00:31:52.078Z,2.90
2019-05-07T00:34:22.611Z,2.90
2019-05-07T00:36:55.655Z,2.80
2019-05-07T00:39:42.532Z,2.70
2019-05-07T00:42:15.701Z,2.70
2019-05-07T00:44:57.808Z,2.60
2019-05-07T00:47:26.289Z,2.60
2019-05-07T00:49:56.512Z,2.60
2019-05-07T00:52:25.085Z,2.50
2019-05-07T00:54:53.839Z,2.40
2019-05-07T00:57:22.902Z,2.40
2019-05-07T00:59:52.510Z,2.30
2019-05-07T01:02:22.903Z,2.30
2019-05-07T01:04:53.251Z,2.30
2019-05-07T01:07:22.951Z,2.20
2019-05-07T01:09:52.352Z,2.20
2019-05-07T01:12:22.169Z,2.10
2019-05-07T01:14:52.808Z,2.10
2019-05-07T01:17:22.755Z,2.00
2019-05-07T01:19:53.287Z,1.90
2019-05-07T01:22:22.341Z,1.90
2019-05-07T01:24:52.554Z,1.90
2019-05-07T01:27:22.696Z,2.00
2019-05-07T01:29:52.796Z,2.10
2019-05-07T01:32:23.149Z,2.10
2019-05-07T01:35:02.545Z,2.20
2019-05-07T01:37:32.592Z,2.10
2019-05-07T01:40:03.076Z,2.10
2019-05-07T01:42:52.848Z,2.00
2019-05-07T01:45:22.045Z,1.90
2019-05-07T01:47:53.113Z,1.90
2019-05-07T01:50:22.685Z,1.80
2019-05-07T01:52:52.298Z,1.70
2019-05-07T01:55:22.540Z,1.70
2019-05-07T01:57:52.285Z,1.60
2019-05-07T02:00:22.444Z,1.60
2019-05-07T02:03:02.847Z,1.60
2019-05-07T02:05:33.222Z,1.50
2019-05-07T02:08:03.536Z,1.50
2019-05-07T02:10:45.367Z,1.50
2019-05-07T02:13:13.994Z,1.40
2019-05-07T02:15:46.800Z,1.40
2019-05-07T02:18:12.726Z,1.40
2019-05-07T02:20:42.598Z,1.30
2019-05-07T02:23:12.797Z,1.20
2019-05-07T02:25:41.984Z,1.30
2019-05-07T02:28:12.726Z,1.20
2019-05-07T02:30:44.057Z,1.20
2019-05-07T02:33:13.490Z,1.20
2019-05-07T02:35:43.883Z,1.20
2019-05-07T02:38:14.267Z,1.10
2019-05-07T02:40:47.024Z,1.10
2019-05-07T02:43:15.629Z,1.20
2019-05-07T02:45:53.508Z,1.10
2019-05-07T02:48:24.584Z,1.10
2019-05-07T02:51:13.170Z,1.10
2019-05-07T02:53:43.226Z,1.00
2019-05-07T02:56:13.118Z,1.00
2019-05-07T02:58:43.488Z,1.00
2019-05-07T03:01:13.925Z,1.10
2019-05-07T03:03:44.982Z,1.00
2019-05-07T03:06:13.808Z,1.00
2019-05-07T03:08:43.907Z,1.00
2019-05-07T03:11:14.042Z,1.00
2019-05-07T03:13:43.363Z,1.00
2019-05-07T03:16:13.139Z,1.00
2019-05-07T03:18:43.900Z,1.00
2019-05-07T03:21:13.850Z,1.00
2019-05-07T03:23:46.564Z,0.90
2019-05-07T03:26:22.865Z,0.90
2019-05-07T03:28:57.507Z,1.00
2019-05-07T03:31:35.566Z,1.00
2019-05-07T03:34:06.840Z,1.00
2019-05-07T03:36:39.614Z,1.00
2019-05-07T03:39:08.542Z,1.10
2019-05-07T03:41:37.417Z,1.20
2019-05-07T03:44:13.407Z,1.30
2019-05-07T03:46:54.666Z,1.50
2019-05-07T03:49:16.767Z,1.60
2019-05-07T03:51:45.383Z,1.60
2019-05-07T03:54:14.507Z,1.70
2019-05-07T03:56:43.645Z,2.00
2019-05-07T03:59:12.999Z,2.10
2019-05-07T04:01:43.084Z,2.30
2019-05-07T04:04:13.204Z,2.30
2019-05-07T04:06:43.377Z,2.30
2019-05-07T04:09:13.292Z,2.40
2019-05-07T04:11:43.352Z,2.50
2019-05-07T04:14:13.619Z,2.50
2019-05-07T04:16:44.093Z,2.60
2019-05-07T04:19:13.384Z,2.70
2019-05-07T04:21:43.431Z,2.80
2019-05-07T04:24:16.584Z,2.80
2019-05-07T04:27:03.704Z,2.90
2019-05-07T04:29:34.845Z,2.90
2019-05-07T04:32:03.388Z,3.00
2019-05-07T04:34:53.211Z,3.20
2019-05-07T04:37:23.988Z,3.40
2019-05-07T04:39:54.806Z,3.60
2019-05-07T04:42:42.906Z,3.80
2019-05-07T04:45:13.716Z,4.00
2019-05-07T04:47:46.753Z,4.20
2019-05-07T04:50:14.250Z,4.50
2019-05-07T04:52:43.666Z,4.80
2019-05-07T04:55:13.787Z,5.00
2019-05-07T04:57:43.769Z,5.10
2019-05-07T05:00:14.350Z,5.60
2019-05-07T05:02:44.801Z,5.80
2019-05-07T05:05:14.339Z,5.90
2019-05-07T05:07:43.276Z,6.40
2019-05-07T05:10:13.442Z,6.60
2019-05-07T05:12:42.932Z,6.80
2019-05-07T05:15:12.766Z,7.20
2019-05-07T05:17:50.430Z,7.50
2019-05-07T05:20:13.075Z,7.10
2019-05-07T05:22:55.278Z,6.20
2019-05-07T05:25:25.479Z,5.80
2019-05-07T05:27:54.078Z,5.70
2019-05-07T05:30:27.684Z,5.70
2019-05-07T05:32:56.200Z,6.50
2019-05-07T05:35:24.701Z,6.20
2019-05-07T05:37:53.173Z,5.80
2019-05-07T05:40:22.669Z,5.70
2019-05-07T05:42:53.014Z,5.70
2019-05-07T05:45:34.576Z,5.70
2019-05-07T05:48:07.496Z,5.70
2019-05-07T05:50:36.439Z,5.80
2019-05-07T05:53:06.826Z,6.10
2019-05-07T05:55:35.881Z,6.10
2019-05-07T05:58:24.211Z,6.00
2019-05-07T06:00:54.327Z,6.00
2019-05-07T06:03:42.910Z,6.20
2019-05-07T06:06:18.467Z,6.40
2019-05-07T06:08:52.471Z,6.50
2019-05-07T06:11:39.324Z,6.60
2019-05-07T06:14:25.501Z,6.90
2019-05-07T06:17:12.984Z,7.00
2019-05-07T06:19:49.313Z,6.90
2019-05-07T06:22:22.218Z,6.80
2019-05-07T06:24:57.502Z,6.80
2019-05-07T06:27:26.261Z,6.70
2019-05-07T06:29:54.747Z,6.80
2019-05-07T06:32:23.349Z,6.80
2019-05-07T06:34:52.380Z,6.70
2019-05-07T06:37:22.846Z,6.60
2019-05-07T06:39:53.034Z,6.70
2019-05-07T06:42:42.760Z,6.60
2019-05-07T06:45:13.263Z,6.80
2019-05-07T06:47:42.462Z,6.90
2019-05-07T06:50:12.523Z,7.10
2019-05-07T06:52:42.586Z,7.40
2019-05-07T06:55:12.164Z,7.50
2019-05-07T06:57:42.564Z,7.40
2019-05-07T07:00:25.167Z,7.20
2019-05-07T07:03:13.879Z,7.20
2019-05-07T07:05:46.892Z,7.20
2019-05-07T07:08:17.989Z,7.50
2019-05-07T07:11:02.411Z,7.70
2019-05-07T07:13:32.148Z,8.70
2019-05-07T07:16:01.943Z,8.30
2019-05-07T07:18:32.345Z,8.10
2019-05-07T07:21:02.190Z,8.00
2019-05-07T07:23:32.429Z,8.20
2019-05-07T07:26:03.170Z,8.30
2019-05-07T07:28:32.663Z,8.20
2019-05-07T07:31:15.522Z,8.10
2019-05-07T07:33:45.662Z,8.10
2019-05-07T07:36:14.330Z,8.70
2019-05-07T07:38:42.950Z,9.60
2019-05-07T07:41:22.880Z,10.30
2019-05-07T07:43:52.558Z,10.50
2019-05-07T07:46:22.098Z,10.40
2019-05-07T07:49:04.367Z,10.70
2019-05-07T07:51:36.726Z,10.80
2019-05-07T07:53:52.441Z,10.10
2019-05-07T07:56:49.064Z,9.60
2019-05-07T07:59:32.894Z,9.10
2019-05-07T08:02:12.225Z,8.90
2019-05-07T08:04:42.473Z,8.60
2019-05-07T08:07:12.348Z,8.50
2019-05-07T08:09:42.593Z,8.50
2019-05-07T08:12:12.691Z,8.50
2019-05-07T08:14:42.742Z,8.70
2019-05-07T08:17:12.987Z,9.00
2019-05-07T08:19:42.859Z,9.00
2019-05-07T08:22:12.245Z,9.20
2019-05-07T08:24:42.569Z,9.20
2019-05-07T08:27:14.757Z,9.50
2019-05-07T08:29:43.039Z,9.50
2019-05-07T08:32:13.569Z,9.70
2019-05-07T08:34:46.235Z,9.80
2019-05-07T08:37:14.961Z,9.90
2019-05-07T08:39:43.515Z,10.10
2019-05-07T08:42:12.387Z,11.20
2019-05-07T08:44:55.195Z,11.50
2019-05-07T08:47:31.995Z,10.70
2019-05-07T08:50:02.677Z,10.50
2019-05-07T08:52:32.581Z,11.60
2019-05-07T08:55:02.171Z,12.90
2019-05-07T08:57:31.870Z,12.30
2019-05-07T09:00:02.316Z,11.50
2019-05-07T09:02:32.616Z,10.80
2019-05-07T09:05:02.959Z,10.20
2019-05-07T09:07:32.294Z,9.70
2019-05-07T09:10:02.524Z,9.60
2019-05-07T09:12:31.855Z,9.50
2019-05-07T09:15:02.243Z,9.50
2019-05-07T09:17:31.836Z,9.60
2019-05-07T09:20:02.581Z,9.70
2019-05-07T09:22:32.342Z,9.70
2019-05-07T09:25:03.086Z,9.60
2019-05-07T09:27:39.229Z,9.70
2019-05-07T09:30:15.791Z,10.00
2019-05-07T09:32:46.096Z,10.00
2019-05-07T09:35:21.554Z,10.00
2019-05-07T09:37:49.764Z,10.10
2019-05-07T09:40:18.436Z,10.20
2019-05-07T09:42:47.259Z,10.20
2019-05-07T09:45:16.567Z,9.90
2019-05-07T09:47:45.158Z,9.80
2019-05-07T09:50:14.548Z,9.70
2019-05-07T09:52:43.223Z,9.70
2019-05-07T09:55:17.095Z,9.60
2019-05-07T09:57:43.001Z,9.50
2019-05-07T10:00:13.027Z,9.20
2019-05-07T10:02:42.522Z,9.00
2019-05-07T10:05:12.442Z,8.80
2019-05-07T10:07:42.406Z,8.40
2019-05-07T10:10:12.081Z,8.00
2019-05-07T10:12:45.360Z,7.80
2019-05-07T10:15:14.216Z,7.80
2019-05-07T10:17:44.557Z,7.80
2019-05-07T10:20:21.665Z,7.90
2019-05-07T10:22:44.568Z,8.10
2019-05-07T10:25:13.274Z,8.00
2019-05-07T10:27:42.129Z,8.00
2019-05-07T10:30:12.887Z,8.00
2019-05-07T10:32:42.162Z,8.00
2019-05-07T10:35:13.444Z,8.20
2019-05-07T10:37:42.457Z,8.40
2019-05-07T10:40:12.392Z,8.40
2019-05-07T10:42:43.101Z,8.50
2019-05-07T10:45:21.862Z,8.60
2019-05-07T10:48:08.614Z,8.70
2019-05-07T10:50:42.536Z,8.80
2019-05-07T10:53:12.528Z,9.00
2019-05-07T10:55:41.989Z,9.20
2019-05-07T10:58:11.719Z,9.40
2019-05-07T11:00:42.114Z,9.40
2019-05-07T11:03:12.619Z,9.70
2019-05-07T11:05:41.836Z,10.00
2019-05-07T11:08:11.046Z,10.70
2019-05-07T11:10:41.736Z,10.40
2019-05-07T11:13:09.866Z,10.30
2019-05-07T11:15:39.071Z,10.30
2019-05-07T11:18:12.801Z,10.10
2019-05-07T11:20:49.916Z,9.80
2019-05-07T11:23:12.626Z,9.30
2019-05-07T11:25:42.063Z,9.30
2019-05-07T11:28:12.340Z,9.40
2019-05-07T11:30:42.517Z,9.50
2019-05-07T11:33:12.761Z,9.60
2019-05-07T11:35:42.380Z,9.70
2019-05-07T11:38:18.630Z,9.50
2019-05-07T11:40:42.807Z,9.40
2019-05-07T11:43:13.345Z,9.50
2019-05-07T11:45:54.367Z,9.20
2019-05-07T11:48:24.736Z,8.70
2019-05-07T11:51:03.667Z,8.70
2019-05-07T11:53:32.982Z,8.50
2019-05-07T11:56:02.502Z,8.80
2019-05-07T11:58:32.542Z,8.40
2019-05-07T12:01:04.009Z,8.50
2019-05-07T12:03:32.881Z,8.20
2019-05-07T12:06:02.083Z,8.20
2019-05-07T12:08:42.533Z,8.20
2019-05-07T12:11:02.422Z,8.10
2019-05-07T12:13:32.368Z,8.00
2019-05-07T12:16:02.942Z,8.10
2019-05-07T12:18:32.076Z,8.20
2019-05-07T12:21:03.796Z,8.10
2019-05-07T12:23:33.006Z,8.00
2019-05-07T12:26:02.318Z,8.10
2019-05-07T12:28:32.758Z,8.10
2019-05-07T12:31:19.690Z,8.20
2019-05-07T12:33:58.947Z,8.20
2019-05-07T12:36:27.611Z,8.20
2019-05-07T12:38:56.253Z,8.40
2019-05-07T12:41:34.057Z,8.60
2019-05-07T12:44:05.713Z,8.80
2019-05-07T12:46:35.803Z,9.00
2019-05-07T12:49:05.275Z,9.10
2019-05-07T12:51:37.711Z,9.20
2019-05-07T12:54:14.744Z,9.10
2019-05-07T12:56:44.368Z,9.40
2019-05-07T12:59:13.018Z,9.50
2019-05-07T13:01:48.868Z,9.50
2019-05-07T13:04:25.342Z,9.90
2019-05-07T13:06:55.866Z,10.10
2019-05-07T13:09:24.448Z,9.80
2019-05-07T13:11:53.026Z,9.90
2019-05-07T13:14:21.894Z,10.30
2019-05-07T13:16:52.301Z,10.50
2019-05-07T13:19:22.648Z,10.50
2019-05-07T13:21:51.424Z,10.00
2019-05-07T13:24:22.642Z,10.40
2019-05-07T13:26:51.851Z,10.00
2019-05-07T13:29:22.155Z,9.80
2019-05-07T13:31:54.415Z,10.20
2019-05-07T13:34:23.219Z,10.90
2019-05-07T13:36:54.630Z,11.10
2019-05-07T13:39:26.293Z,11.10
2019-05-07T13:42:13.178Z,11.20
2019-05-07T13:44:43.818Z,11.10
2019-05-07T13:47:29.600Z,10.80
2019-05-07T13:49:58.628Z,10.80
2019-05-07T13:52:30.116Z,10.60
2019-05-07T13:54:59.253Z,10.70
2019-05-07T13:57:27.955Z,10.90
2019-05-07T13:59:56.628Z,10.50
2019-05-07T14:02:27.198Z,10.60
2019-05-07T14:04:55.891Z,10.70
2019-05-07T14:07:25.869Z,10.80
2019-05-07T14:09:55.264Z,10.50
2019-05-07T14:12:24.039Z,10.30
2019-05-07T14:14:53.181Z,10.30
2019-05-07T14:17:22.377Z,10.30
2019-05-07T14:19:53.071Z,10.40
2019-05-07T14:22:22.515Z,10.60
2019-05-07T14:24:53.049Z,10.80
2019-05-07T14:27:21.994Z,10.80
2019-05-07T14:29:52.038Z,11.00
2019-05-07T14:32:28.586Z,11.10
2019-05-07T14:35:05.106Z,11.30
2019-05-07T14:37:53.421Z,11.30
2019-05-07T14:40:22.272Z,11.30
2019-05-07T14:42:54.137Z,11.00
2019-05-07T14:45:23.856Z,11.00
2019-05-07T14:47:52.683Z,11.20
2019-05-07T14:50:22.645Z,11.20
2019-05-07T14:52:52.342Z,11.20
2019-05-07T14:55:22.312Z,11.20
2019-05-07T14:57:52.444Z,11.10
2019-05-07T15:00:22.536Z,11.10
2019-05-07T15:02:52.482Z,11.00
2019-05-07T15:05:22.333Z,10.90
2019-05-07T15:07:51.426Z,10.50
2019-05-07T15:10:22.098Z,10.70
2019-05-07T15:12:52.148Z,10.80
2019-05-07T15:15:21.923Z,10.90
2019-05-07T15:17:52.563Z,10.40
2019-05-07T15:20:22.662Z,10.60
2019-05-07T15:23:08.386Z,10.80
2019-05-07T15:25:36.972Z,10.80
2019-05-07T15:28:06.301Z,10.90
2019-05-07T15:30:36.743Z,10.90
2019-05-07T15:33:05.448Z,10.70
2019-05-07T15:35:34.008Z,10.60
2019-05-07T15:38:03.338Z,10.50
2019-05-07T15:40:33.009Z,10.50
2019-05-07T15:43:02.241Z,10.50
2019-05-07T15:45:30.981Z,10.40
2019-05-07T15:47:59.694Z,10.10
2019-05-07T15:50:32.215Z,10.00
2019-05-07T15:53:02.601Z,10.30
2019-05-07T15:55:31.185Z,10.00
2019-05-07T15:58:00.135Z,10.10
2019-05-07T16:00:30.535Z,10.10
2019-05-07T16:03:06.780Z,10.10
2019-05-07T16:05:35.484Z,9.80
2019-05-07T16:08:05.765Z,9.80
2019-05-07T16:10:34.437Z,9.60
2019-05-07T16:13:03.526Z,9.70
2019-05-07T16:15:32.234Z,9.70
2019-05-07T16:18:05.861Z,9.80
2019-05-07T16:20:34.494Z,9.90
2019-05-07T16:23:14.288Z,9.90
2019-05-07T16:25:33.754Z,10.00
2019-05-07T16:28:04.946Z,9.90
2019-05-07T16:30:32.716Z,9.90
2019-05-07T16:33:02.135Z,9.90
2019-05-07T16:35:32.110Z,9.70
2019-05-07T16:38:00.920Z,9.50
2019-05-07T16:40:29.629Z,9.50
2019-05-07T16:42:58.194Z,9.60
2019-05-07T16:45:26.818Z,9.60
2019-05-07T16:47:55.481Z,9.60
2019-05-07T16:50:24.060Z,9.60
2019-05-07T16:52:52.647Z,9.50
2019-05-07T16:55:22.415Z,9.40
2019-05-07T16:57:55.984Z,9.10
2019-05-07T17:00:35.392Z,9.00
2019-05-07T17:03:05.669Z,9.00
2019-05-07T17:05:34.303Z,9.00
2019-05-07T17:08:04.595Z,9.00
2019-05-07T17:10:33.284Z,8.90
2019-05-07T17:13:02.883Z,8.80
2019-05-07T17:15:36.162Z,8.90
2019-05-07T17:18:04.797Z,8.90
2019-05-07T17:20:35.789Z,8.80
2019-05-07T17:23:04.387Z,8.70
2019-05-07T17:25:37.774Z,8.70
2019-05-07T17:28:09.609Z,8.60
2019-05-07T17:30:38.780Z,8.60
2019-05-07T17:33:08.507Z,8.60
2019-05-07T17:35:37.462Z,8.50
2019-05-07T17:38:09.669Z,8.50
2019-05-07T17:40:37.375Z,8.40
2019-05-07T17:43:06.055Z,8.30
2019-05-07T17:45:36.229Z,8.10
2019-05-07T17:48:05.427Z,8.10
2019-05-07T17:50:35.744Z,8.00
2019-05-07T17:53:04.420Z,8.00
2019-05-07T17:55:33.289Z,7.90
2019-05-07T17:58:02.064Z,7.80
2019-05-07T18:00:32.857Z,7.70
2019-05-07T18:03:13.207Z,7.50
2019-05-07T18:05:42.472Z,7.40
2019-05-07T18:08:12.657Z,7.50
2019-05-07T18:10:42.465Z,7.50
2019-05-07T18:13:11.922Z,7.50
2019-05-07T18:15:42.741Z,7.50
2019-05-07T18:18:12.807Z,7.40
2019-05-07T18:20:42.237Z,7.30
2019-05-07T18:23:16.696Z,7.20
2019-05-07T18:25:42.853Z,7.10
2019-05-07T18:28:16.103Z,7.10
2019-05-07T18:30:44.348Z,7.00
2019-05-07T18:33:15.982Z,7.00
2019-05-07T18:35:57.585Z,6.90
2019-05-07T18:38:27.353Z,6.70
2019-05-07T18:40:56.426Z,6.70
2019-05-07T18:43:26.097Z,6.70
2019-05-07T18:46:04.963Z,6.60
2019-05-07T18:48:34.291Z,6.60
2019-05-07T18:51:03.381Z,6.60
2019-05-07T18:53:32.565Z,6.50
2019-05-07T18:56:02.211Z,6.50
2019-05-07T18:58:31.932Z,6.50
2019-05-07T19:01:02.703Z,6.50
2019-05-07T19:03:32.509Z,6.40
2019-05-07T19:06:02.840Z,6.40
2019-05-07T19:08:32.642Z,6.30
2019-05-07T19:11:02.079Z,6.20
2019-05-07T19:13:33.022Z,6.10
2019-05-07T19:16:02.973Z,6.00
2019-05-07T19:18:32.302Z,6.00
2019-05-07T19:21:01.264Z,5.90
2019-05-07T19:23:32.948Z,5.90
2019-05-07T19:26:02.904Z,5.90
2019-05-07T19:28:32.940Z,5.80
2019-05-07T19:31:01.956Z,5.70
2019-05-07T19:33:32.513Z,5.70
2019-05-07T19:36:01.456Z,5.70
2019-05-07T19:38:32.193Z,5.60
2019-05-07T19:41:03.107Z,5.50
2019-05-07T19:43:32.884Z,5.50
2019-05-07T19:46:03.037Z,5.50
2019-05-07T19:48:32.398Z,5.40
2019-05-07T19:51:02.908Z,5.40
2019-05-07T19:53:34.245Z,5.30
2019-05-07T19:56:04.522Z,5.20
2019-05-07T19:58:33.772Z,5.20
2019-05-07T20:01:03.930Z,5.10
2019-05-07T20:03:32.564Z,5.10
2019-05-07T20:06:02.414Z,5.10
2019-05-07T20:08:31.925Z,5.00
2019-05-07T20:11:02.800Z,5.00
2019-05-07T20:13:32.342Z,4.90
2019-05-07T20:16:12.206Z,4.90
2019-05-07T20:18:42.777Z,5.00
2019-05-07T20:21:12.329Z,5.00
2019-05-07T20:23:43.242Z,5.00
2019-05-07T20:26:12.604Z,4.90
2019-05-07T20:28:44.108Z,4.80
2019-05-07T20:31:12.947Z,4.70
2019-05-07T20:33:42.415Z,4.70
2019-05-07T20:36:11.373Z,4.60
2019-05-07T20:38:43.266Z,4.50
2019-05-07T20:41:12.954Z,4.50
2019-05-07T20:43:42.869Z,4.50
2019-05-07T20:46:12.066Z,4.40
2019-05-07T20:48:42.323Z,4.30
2019-05-07T20:51:12.405Z,4.30
2019-05-07T20:53:58.587Z,4.20
2019-05-07T20:56:35.272Z,4.00
2019-05-07T20:59:08.660Z,3.90
2019-05-07T21:01:37.378Z,3.90
2019-05-07T21:04:06.168Z,3.90
2019-05-07T21:06:34.834Z,3.80
2019-05-07T21:09:05.605Z,3.70
2019-05-07T21:11:34.266Z,3.70
2019-05-07T21:14:03.318Z,3.80
2019-05-07T21:16:32.948Z,3.90
2019-05-07T21:19:02.110Z,3.90
2019-05-07T21:21:32.685Z,3.90
2019-05-07T21:24:08.298Z,3.90
2019-05-07T21:26:36.867Z,3.70
2019-05-07T21:29:05.564Z,3.60
2019-05-07T21:31:34.233Z,3.50
2019-05-07T21:34:03.173Z,3.30
2019-05-07T21:36:32.490Z,3.30
2019-05-07T21:39:02.305Z,3.20
2019-05-07T21:41:33.243Z,3.00
2019-05-07T21:44:01.434Z,2.90
2019-05-07T21:46:30.095Z,2.80
2019-05-07T21:48:58.734Z,2.80
2019-05-07T21:51:27.319Z,2.70
2019-05-07T21:54:06.239Z,2.60
2019-05-07T21:56:49.274Z,2.60
2019-05-07T21:59:25.297Z,2.50
2019-05-07T22:01:55.494Z,2.50
2019-05-07T22:04:24.149Z,2.30
2019-05-07T22:06:52.764Z,2.40
2019-05-07T22:09:22.324Z,2.40
2019-05-07T22:11:53.525Z,2.50
2019-05-07T22:14:22.178Z,2.50
2019-05-07T22:16:54.289Z,2.50
2019-05-07T22:19:21.373Z,2.50
2019-05-07T22:21:52.164Z,2.50
2019-05-07T22:24:22.180Z,2.40
2019-05-07T22:26:50.601Z,2.40
2019-05-07T22:29:19.213Z,2.40
2019-05-07T22:31:49.398Z,2.40
2019-05-07T22:34:22.104Z,2.30
2019-05-07T22:36:52.485Z,2.30
2019-05-07T22:39:22.091Z,2.20
2019-05-07T22:41:50.977Z,2.20
2019-05-07T22:44:22.901Z,2.30
2019-05-07T22:46:50.043Z,2.30
2019-05-07T22:49:19.214Z,2.40
2019-05-07T22:51:47.873Z,2.40
2019-05-07T22:54:16.426Z,2.50
2019-05-07T22:57:04.757Z,2.40
2019-05-07T22:59:33.331Z,2.40
2019-05-07T23:02:03.918Z,2.30
2019-05-07T23:04:33.258Z,2.10
2019-05-07T23:07:02.331Z,2.10
2019-05-07T23:09:30.896Z,2.20
2019-05-07T23:12:01.753Z,2.10
2019-05-07T23:14:30.093Z,2.10
2019-05-07T23:16:58.601Z,1.90
2019-05-07T23:19:27.141Z,1.80
2019-05-07T23:21:55.659Z,1.70
2019-05-07T23:24:24.905Z,1.70
2019-05-07T23:26:54.266Z,1.70
2019-05-07T23:29:22.882Z,1.60
2019-05-07T23:31:53.031Z,1.50
2019-05-07T23:34:22.188Z,1.60
2019-05-07T23:36:53.425Z,1.60
2019-05-07T23:39:24.455Z,1.60
2019-05-07T23:42:02.140Z,1.60
2019-05-07T23:44:30.363Z,1.50
2019-05-07T23:46:58.958Z,1.50
2019-05-07T23:49:27.506Z,1.40
2019-05-07T23:51:56.200Z,1.40
2019-05-07T23:54:24.744Z,1.40
2019-05-07T23:57:05.385Z,1.30
2019-05-07T23:59:23.614Z,1.40
